Terminal Aerodrome Forecast
Issued by NWS

Home | Current Version | Previous Version | Text Only | Print | Product List | Glossary On
Versions: 1 2 3 4 5 6 7 8 9 10 11 12 13 14 15 16 17 18 19 20 21
000
FTUS43 KGRB 081136
TAFRHI
TAF
KRHI 081136Z 0812/0912 28009G16KT 6SM -SHSN SCT012 OVC020
      TEMPO 0812/0816 1SM -SHSN BKN012
     FM081600 32009G18KT 4SM -SHSN SCT016 OVC022
      TEMPO 0816/0820 1SM -SHSN BKN016
     FM082300 31007KT 4SM -SHSN OVC023
     FM090800 30006KT 4SM -SHSN OVC016=

USA.gov is the U.S. government's official web portal to all federal, state and local government web resources and services.